<?xml version="1.0" encoding="UTF-8" standalone="no" ?>
<gpx xmlns="http://www.topografix.com/GPX/1/1" xmlns:xsi="http://www.w3.org/2001/XMLSchema-instance" xsi:schemaLocation="http://www.topografix.com/GPX/1/1 http://www.topografix.com/GPX/1/1/gpx.xsd" version="1.1" creator="VisuGPX - https://www.visugpx.com">
  <metadata>
    <name>La Chapelle-de-Guinchay Cyclisme</name>
    <desc><![CDATA[Col de la Croix Montmain au départ intersection D44 et D49]]></desc>
  </metadata>
  <trk>
    <name><![CDATA[La Chapelle-de-Guinchay Cyclisme]]></name>
    <trkseg>
      <trkpt lat="46.04595" lon="4.54735">
        <ele>606.79998779297</ele>
        <time>2020-08-06T08:59:40.000Z</time>
      </trkpt>
      <trkpt lat="46.04606" lon="4.54755">
        <ele>606.79998779297</ele>
        <time>2020-08-06T08:59:44.000Z</time>
      </trkpt>
      <trkpt lat="46.04609" lon="4.5476">
        <ele>606.79998779297</ele>
        <time>2020-08-06T08:59:45.000Z</time>
      </trkpt>
      <trkpt lat="46.04614" lon="4.54769">
        <ele>606.79998779297</ele>
        <time>2020-08-06T08:59:47.000Z</time>
      </trkpt>
      <trkpt lat="46.04626" lon="4.54788">
        <ele>606.59997558594</ele>
        <time>2020-08-06T08:59:51.000Z</time>
      </trkpt>
      <trkpt lat="46.04634" lon="4.548">
        <ele>606.20001220703</ele>
        <time>2020-08-06T08:59:54.000Z</time>
      </trkpt>
      <trkpt lat="46.04641" lon="4.54806">
        <ele>606.79998779297</ele>
        <time>2020-08-06T08:59:56.000Z</time>
      </trkpt>
      <trkpt lat="46.04653" lon="4.54811">
        <ele>609.40002441406</ele>
        <time>2020-08-06T08:59:59.000Z</time>
      </trkpt>
      <trkpt lat="46.04657" lon="4.54811">
        <ele>610.40002441406</ele>
        <time>2020-08-06T09:00:00.000Z</time>
      </trkpt>
      <trkpt lat="46.04664" lon="4.54813">
        <ele>612.79998779297</ele>
        <time>2020-08-06T09:00:02.000Z</time>
      </trkpt>
      <trkpt lat="46.04676" lon="4.54816">
        <ele>615.79998779297</ele>
        <time>2020-08-06T09:00:05.000Z</time>
      </trkpt>
      <trkpt lat="46.0468" lon="4.54818">
        <ele>616.20001220703</ele>
        <time>2020-08-06T09:00:06.000Z</time>
      </trkpt>
      <trkpt lat="46.04689" lon="4.54828">
        <ele>616.40002441406</ele>
        <time>2020-08-06T09:00:09.000Z</time>
      </trkpt>
      <trkpt lat="46.04692" lon="4.54832">
        <ele>616.20001220703</ele>
        <time>2020-08-06T09:00:10.000Z</time>
      </trkpt>
      <trkpt lat="46.04694" lon="4.54836">
        <ele>615.79998779297</ele>
        <time>2020-08-06T09:00:11.000Z</time>
      </trkpt>
      <trkpt lat="46.04703" lon="4.54853">
        <ele>613.59997558594</ele>
        <time>2020-08-06T09:00:15.000Z</time>
      </trkpt>
      <trkpt lat="46.04705" lon="4.54858">
        <ele>613</ele>
        <time>2020-08-06T09:00:16.000Z</time>
      </trkpt>
      <trkpt lat="46.0472" lon="4.54886">
        <ele>612</ele>
        <time>2020-08-06T09:00:23.000Z</time>
      </trkpt>
      <trkpt lat="46.04735" lon="4.54908">
        <ele>612.40002441406</ele>
        <time>2020-08-06T09:00:29.000Z</time>
      </trkpt>
      <trkpt lat="46.04738" lon="4.54912">
        <ele>612.40002441406</ele>
        <time>2020-08-06T09:00:30.000Z</time>
      </trkpt>
      <trkpt lat="46.04761" lon="4.54935">
        <ele>614</ele>
        <time>2020-08-06T09:00:38.000Z</time>
      </trkpt>
      <trkpt lat="46.04781" lon="4.54951">
        <ele>616.40002441406</ele>
        <time>2020-08-06T09:00:45.000Z</time>
      </trkpt>
      <trkpt lat="46.04785" lon="4.54953">
        <ele>616.59997558594</ele>
        <time>2020-08-06T09:00:46.000Z</time>
      </trkpt>
      <trkpt lat="46.04804" lon="4.54968">
        <ele>617.59997558594</ele>
        <time>2020-08-06T09:00:53.000Z</time>
      </trkpt>
      <trkpt lat="46.0481" lon="4.54972">
        <ele>617.79998779297</ele>
        <time>2020-08-06T09:00:55.000Z</time>
      </trkpt>
      <trkpt lat="46.04817" lon="4.54978">
        <ele>616.79998779297</ele>
        <time>2020-08-06T09:00:58.000Z</time>
      </trkpt>
      <trkpt lat="46.04825" lon="4.54986">
        <ele>615</ele>
        <time>2020-08-06T09:01:01.000Z</time>
      </trkpt>
      <trkpt lat="46.04832" lon="4.54996">
        <ele>613</ele>
        <time>2020-08-06T09:01:04.000Z</time>
      </trkpt>
      <trkpt lat="46.04843" lon="4.55021">
        <ele>607.40002441406</ele>
        <time>2020-08-06T09:01:10.000Z</time>
      </trkpt>
      <trkpt lat="46.04847" lon="4.55034">
        <ele>604.40002441406</ele>
        <time>2020-08-06T09:01:13.000Z</time>
      </trkpt>
      <trkpt lat="46.04852" lon="4.55047">
        <ele>604</ele>
        <time>2020-08-06T09:01:16.000Z</time>
      </trkpt>
      <trkpt lat="46.04858" lon="4.55058">
        <ele>603.59997558594</ele>
        <time>2020-08-06T09:01:19.000Z</time>
      </trkpt>
      <trkpt lat="46.04866" lon="4.55066">
        <ele>603.59997558594</ele>
        <time>2020-08-06T09:01:22.000Z</time>
      </trkpt>
      <trkpt lat="46.04872" lon="4.55069">
        <ele>603.59997558594</ele>
        <time>2020-08-06T09:01:24.000Z</time>
      </trkpt>
      <trkpt lat="46.04879" lon="4.55071">
        <ele>603.79998779297</ele>
        <time>2020-08-06T09:01:26.000Z</time>
      </trkpt>
      <trkpt lat="46.04882" lon="4.55071">
        <ele>603.79998779297</ele>
        <time>2020-08-06T09:01:27.000Z</time>
      </trkpt>
      <trkpt lat="46.04885" lon="4.55071">
        <ele>604</ele>
        <time>2020-08-06T09:01:28.000Z</time>
      </trkpt>
      <trkpt lat="46.04888" lon="4.5507">
        <ele>604.20001220703</ele>
        <time>2020-08-06T09:01:29.000Z</time>
      </trkpt>
      <trkpt lat="46.04891" lon="4.55068">
        <ele>604.40002441406</ele>
        <time>2020-08-06T09:01:30.000Z</time>
      </trkpt>
      <trkpt lat="46.04894" lon="4.55067">
        <ele>604.20001220703</ele>
        <time>2020-08-06T09:01:31.000Z</time>
      </trkpt>
      <trkpt lat="46.04896" lon="4.55065">
        <ele>603.59997558594</ele>
        <time>2020-08-06T09:01:32.000Z</time>
      </trkpt>
      <trkpt lat="46.04898" lon="4.55062">
        <ele>603.20001220703</ele>
        <time>2020-08-06T09:01:33.000Z</time>
      </trkpt>
      <trkpt lat="46.04902" lon="4.55054">
        <ele>602.59997558594</ele>
        <time>2020-08-06T09:01:35.000Z</time>
      </trkpt>
      <trkpt lat="46.04904" lon="4.5505">
        <ele>602.40002441406</ele>
        <time>2020-08-06T09:01:36.000Z</time>
      </trkpt>
      <trkpt lat="46.04905" lon="4.55046">
        <ele>602.20001220703</ele>
        <time>2020-08-06T09:01:37.000Z</time>
      </trkpt>
      <trkpt lat="46.04908" lon="4.55037">
        <ele>600.79998779297</ele>
        <time>2020-08-06T09:01:39.000Z</time>
      </trkpt>
      <trkpt lat="46.0491" lon="4.55028">
        <ele>600.79998779297</ele>
        <time>2020-08-06T09:01:41.000Z</time>
      </trkpt>
      <trkpt lat="46.04912" lon="4.5502">
        <ele>601.40002441406</ele>
        <time>2020-08-06T09:01:43.000Z</time>
      </trkpt>
      <trkpt lat="46.04913" lon="4.55015">
        <ele>601.79998779297</ele>
        <time>2020-08-06T09:01:44.000Z</time>
      </trkpt>
      <trkpt lat="46.04914" lon="4.55011">
        <ele>602.20001220703</ele>
        <time>2020-08-06T09:01:45.000Z</time>
      </trkpt>
      <trkpt lat="46.04915" lon="4.55002">
        <ele>603</ele>
        <time>2020-08-06T09:01:47.000Z</time>
      </trkpt>
      <trkpt lat="46.04917" lon="4.54993">
        <ele>603.79998779297</ele>
        <time>2020-08-06T09:01:49.000Z</time>
      </trkpt>
      <trkpt lat="46.04918" lon="4.54984">
        <ele>604.79998779297</ele>
        <time>2020-08-06T09:01:51.000Z</time>
      </trkpt>
      <trkpt lat="46.0492" lon="4.54969">
        <ele>606.20001220703</ele>
        <time>2020-08-06T09:01:54.000Z</time>
      </trkpt>
      <trkpt lat="46.0492" lon="4.54965">
        <ele>606.79998779297</ele>
        <time>2020-08-06T09:01:55.000Z</time>
      </trkpt>
      <trkpt lat="46.04921" lon="4.54956">
        <ele>607.79998779297</ele>
        <time>2020-08-06T09:01:57.000Z</time>
      </trkpt>
      <trkpt lat="46.04922" lon="4.54946">
        <ele>609</ele>
        <time>2020-08-06T09:01:59.000Z</time>
      </trkpt>
      <trkpt lat="46.04923" lon="4.54942">
        <ele>609.59997558594</ele>
        <time>2020-08-06T09:02:00.000Z</time>
      </trkpt>
      <trkpt lat="46.04925" lon="4.54934">
        <ele>610.79998779297</ele>
        <time>2020-08-06T09:02:02.000Z</time>
      </trkpt>
      <trkpt lat="46.04928" lon="4.54922">
        <ele>612</ele>
        <time>2020-08-06T09:02:05.000Z</time>
      </trkpt>
      <trkpt lat="46.04929" lon="4.54918">
        <ele>612.20001220703</ele>
        <time>2020-08-06T09:02:06.000Z</time>
      </trkpt>
      <trkpt lat="46.04932" lon="4.54911">
        <ele>613</ele>
        <time>2020-08-06T09:02:08.000Z</time>
      </trkpt>
      <trkpt lat="46.04935" lon="4.54899">
        <ele>614</ele>
        <time>2020-08-06T09:02:11.000Z</time>
      </trkpt>
      <trkpt lat="46.04938" lon="4.54885">
        <ele>615</ele>
        <time>2020-08-06T09:02:14.000Z</time>
      </trkpt>
      <trkpt lat="46.04948" lon="4.54858">
        <ele>616.40002441406</ele>
        <time>2020-08-06T09:02:21.000Z</time>
      </trkpt>
      <trkpt lat="46.04949" lon="4.54854">
        <ele>616.59997558594</ele>
        <time>2020-08-06T09:02:22.000Z</time>
      </trkpt>
      <trkpt lat="46.04956" lon="4.54838">
        <ele>616.40002441406</ele>
        <time>2020-08-06T09:02:27.000Z</time>
      </trkpt>
      <trkpt lat="46.04958" lon="4.54835">
        <ele>616.20001220703</ele>
        <time>2020-08-06T09:02:28.000Z</time>
      </trkpt>
      <trkpt lat="46.04968" lon="4.54818">
        <ele>613.79998779297</ele>
        <time>2020-08-06T09:02:33.000Z</time>
      </trkpt>
      <trkpt lat="46.04979" lon="4.54794">
        <ele>611.79998779297</ele>
        <time>2020-08-06T09:02:39.000Z</time>
      </trkpt>
      <trkpt lat="46.0499" lon="4.54765">
        <ele>609.79998779297</ele>
        <time>2020-08-06T09:02:46.000Z</time>
      </trkpt>
      <trkpt lat="46.04991" lon="4.54761">
        <ele>609.59997558594</ele>
        <time>2020-08-06T09:02:47.000Z</time>
      </trkpt>
      <trkpt lat="46.04998" lon="4.54735">
        <ele>609.40002441406</ele>
        <time>2020-08-06T09:02:53.000Z</time>
      </trkpt>
      <trkpt lat="46.04999" lon="4.54721">
        <ele>609.79998779297</ele>
        <time>2020-08-06T09:02:56.000Z</time>
      </trkpt>
      <trkpt lat="46.05" lon="4.54707">
        <ele>608.79998779297</ele>
        <time>2020-08-06T09:02:59.000Z</time>
      </trkpt>
      <trkpt lat="46.05" lon="4.54694">
        <ele>608.59997558594</ele>
        <time>2020-08-06T09:03:02.000Z</time>
      </trkpt>
      <trkpt lat="46.04999" lon="4.54678">
        <ele>608.79998779297</ele>
        <time>2020-08-06T09:03:06.000Z</time>
      </trkpt>
      <trkpt lat="46.04998" lon="4.5466">
        <ele>609.40002441406</ele>
        <time>2020-08-06T09:03:10.000Z</time>
      </trkpt>
      <trkpt lat="46.04997" lon="4.54647">
        <ele>610</ele>
        <time>2020-08-06T09:03:13.000Z</time>
      </trkpt>
      <trkpt lat="46.04995" lon="4.54635">
        <ele>611</ele>
        <time>2020-08-06T09:03:16.000Z</time>
      </trkpt>
      <trkpt lat="46.04993" lon="4.54622">
        <ele>611.40002441406</ele>
        <time>2020-08-06T09:03:19.000Z</time>
      </trkpt>
      <trkpt lat="46.04992" lon="4.54618">
        <ele>611.79998779297</ele>
        <time>2020-08-06T09:03:20.000Z</time>
      </trkpt>
      <trkpt lat="46.04987" lon="4.5459">
        <ele>612</ele>
        <time>2020-08-06T09:03:27.000Z</time>
      </trkpt>
      <trkpt lat="46.04985" lon="4.54582">
        <ele>612.40002441406</ele>
        <time>2020-08-06T09:03:29.000Z</time>
      </trkpt>
      <trkpt lat="46.04979" lon="4.54562">
        <ele>614.20001220703</ele>
        <time>2020-08-06T09:03:34.000Z</time>
      </trkpt>
      <trkpt lat="46.04977" lon="4.54554">
        <ele>614.59997558594</ele>
        <time>2020-08-06T09:03:36.000Z</time>
      </trkpt>
      <trkpt lat="46.0497" lon="4.54534">
        <ele>616.40002441406</ele>
        <time>2020-08-06T09:03:41.000Z</time>
      </trkpt>
      <trkpt lat="46.04965" lon="4.54517">
        <ele>616</ele>
        <time>2020-08-06T09:03:46.000Z</time>
      </trkpt>
      <trkpt lat="46.04964" lon="4.54513">
        <ele>616</ele>
        <time>2020-08-06T09:03:47.000Z</time>
      </trkpt>
      <trkpt lat="46.04957" lon="4.54495">
        <ele>617.20001220703</ele>
        <time>2020-08-06T09:03:52.000Z</time>
      </trkpt>
      <trkpt lat="46.04949" lon="4.54477">
        <ele>619</ele>
        <time>2020-08-06T09:03:57.000Z</time>
      </trkpt>
      <trkpt lat="46.04943" lon="4.54462">
        <ele>619.79998779297</ele>
        <time>2020-08-06T09:04:01.000Z</time>
      </trkpt>
      <trkpt lat="46.04934" lon="4.54446">
        <ele>622</ele>
        <time>2020-08-06T09:04:05.000Z</time>
      </trkpt>
      <trkpt lat="46.04931" lon="4.5444">
        <ele>623.40002441406</ele>
        <time>2020-08-06T09:04:07.000Z</time>
      </trkpt>
      <trkpt lat="46.04921" lon="4.54419">
        <ele>627</ele>
        <time>2020-08-06T09:04:13.000Z</time>
      </trkpt>
      <trkpt lat="46.04914" lon="4.54394">
        <ele>629</ele>
        <time>2020-08-06T09:04:20.000Z</time>
      </trkpt>
      <trkpt lat="46.04912" lon="4.54387">
        <ele>629.20001220703</ele>
        <time>2020-08-06T09:04:22.000Z</time>
      </trkpt>
      <trkpt lat="46.04908" lon="4.5437">
        <ele>630.59997558594</ele>
        <time>2020-08-06T09:04:27.000Z</time>
      </trkpt>
      <trkpt lat="46.04903" lon="4.54352">
        <ele>632.59997558594</ele>
        <time>2020-08-06T09:04:31.000Z</time>
      </trkpt>
      <trkpt lat="46.04902" lon="4.54345">
        <ele>633.20001220703</ele>
        <time>2020-08-06T09:04:33.000Z</time>
      </trkpt>
      <trkpt lat="46.04901" lon="4.54341">
        <ele>633.20001220703</ele>
        <time>2020-08-06T09:04:34.000Z</time>
      </trkpt>
      <trkpt lat="46.04899" lon="4.54329">
        <ele>633.79998779297</ele>
        <time>2020-08-06T09:04:37.000Z</time>
      </trkpt>
      <trkpt lat="46.04897" lon="4.54319">
        <ele>634.79998779297</ele>
        <time>2020-08-06T09:04:39.000Z</time>
      </trkpt>
      <trkpt lat="46.04895" lon="4.54308">
        <ele>635.40002441406</ele>
        <time>2020-08-06T09:04:42.000Z</time>
      </trkpt>
      <trkpt lat="46.04895" lon="4.54298">
        <ele>635.20001220703</ele>
        <time>2020-08-06T09:04:45.000Z</time>
      </trkpt>
      <trkpt lat="46.04893" lon="4.54292">
        <ele>636</ele>
        <time>2020-08-06T09:04:46.000Z</time>
      </trkpt>
      <trkpt lat="46.04891" lon="4.54287">
        <ele>636.79998779297</ele>
        <time>2020-08-06T09:04:47.000Z</time>
      </trkpt>
      <trkpt lat="46.04891" lon="4.54285">
        <ele>636.79998779297</ele>
        <time>2020-08-06T09:04:48.000Z</time>
      </trkpt>
      <trkpt lat="46.04891" lon="4.54282">
        <ele>637</ele>
        <time>2020-08-06T09:04:49.000Z</time>
      </trkpt>
      <trkpt lat="46.04891" lon="4.54277">
        <ele>637.59997558594</ele>
        <time>2020-08-06T09:04:50.000Z</time>
      </trkpt>
      <trkpt lat="46.04891" lon="4.54272">
        <ele>638.20001220703</ele>
        <time>2020-08-06T09:04:51.000Z</time>
      </trkpt>
      <trkpt lat="46.0489" lon="4.54255">
        <ele>639.59997558594</ele>
        <time>2020-08-06T09:04:55.000Z</time>
      </trkpt>
      <trkpt lat="46.04891" lon="4.54251">
        <ele>640</ele>
        <time>2020-08-06T09:04:56.000Z</time>
      </trkpt>
      <trkpt lat="46.0489" lon="4.54225">
        <ele>642.59997558594</ele>
        <time>2020-08-06T09:05:02.000Z</time>
      </trkpt>
      <trkpt lat="46.0489" lon="4.542">
        <ele>644.40002441406</ele>
        <time>2020-08-06T09:05:08.000Z</time>
      </trkpt>
      <trkpt lat="46.04891" lon="4.54196">
        <ele>645.40002441406</ele>
        <time>2020-08-06T09:05:09.000Z</time>
      </trkpt>
      <trkpt lat="46.04893" lon="4.54174">
        <ele>650.40002441406</ele>
        <time>2020-08-06T09:05:13.000Z</time>
      </trkpt>
      <trkpt lat="46.04896" lon="4.5416">
        <ele>653.79998779297</ele>
        <time>2020-08-06T09:05:16.000Z</time>
      </trkpt>
      <trkpt lat="46.04901" lon="4.5415">
        <ele>656</ele>
        <time>2020-08-06T09:05:19.000Z</time>
      </trkpt>
      <trkpt lat="46.04902" lon="4.54146">
        <ele>656.79998779297</ele>
        <time>2020-08-06T09:05:20.000Z</time>
      </trkpt>
      <trkpt lat="46.0491" lon="4.5413">
        <ele>660</ele>
        <time>2020-08-06T09:05:25.000Z</time>
      </trkpt>
      <trkpt lat="46.04914" lon="4.54119">
        <ele>661.40002441406</ele>
        <time>2020-08-06T09:05:28.000Z</time>
      </trkpt>
      <trkpt lat="46.0492" lon="4.5411">
        <ele>663</ele>
        <time>2020-08-06T09:05:31.000Z</time>
      </trkpt>
      <trkpt lat="46.04924" lon="4.54104">
        <ele>664.40002441406</ele>
        <time>2020-08-06T09:05:33.000Z</time>
      </trkpt>
      <trkpt lat="46.04927" lon="4.54098">
        <ele>665.59997558594</ele>
        <time>2020-08-06T09:05:35.000Z</time>
      </trkpt>
      <trkpt lat="46.04931" lon="4.5409">
        <ele>667.40002441406</ele>
        <time>2020-08-06T09:05:37.000Z</time>
      </trkpt>
      <trkpt lat="46.04932" lon="4.54087">
        <ele>668.40002441406</ele>
        <time>2020-08-06T09:05:38.000Z</time>
      </trkpt>
      <trkpt lat="46.04935" lon="4.54079">
        <ele>670</ele>
        <time>2020-08-06T09:05:40.000Z</time>
      </trkpt>
      <trkpt lat="46.04937" lon="4.54076">
        <ele>671</ele>
        <time>2020-08-06T09:05:41.000Z</time>
      </trkpt>
      <trkpt lat="46.04939" lon="4.54072">
        <ele>672</ele>
        <time>2020-08-06T09:05:42.000Z</time>
      </trkpt>
      <trkpt lat="46.0494" lon="4.54068">
        <ele>673</ele>
        <time>2020-08-06T09:05:43.000Z</time>
      </trkpt>
      <trkpt lat="46.04943" lon="4.54061">
        <ele>674.79998779297</ele>
        <time>2020-08-06T09:05:45.000Z</time>
      </trkpt>
      <trkpt lat="46.0495" lon="4.54047">
        <ele>678.20001220703</ele>
        <time>2020-08-06T09:05:49.000Z</time>
      </trkpt>
      <trkpt lat="46.04952" lon="4.54044">
        <ele>679</ele>
        <time>2020-08-06T09:05:50.000Z</time>
      </trkpt>
      <trkpt lat="46.04954" lon="4.54041">
        <ele>679.59997558594</ele>
        <time>2020-08-06T09:05:51.000Z</time>
      </trkpt>
      <trkpt lat="46.04956" lon="4.54038">
        <ele>680.40002441406</ele>
        <time>2020-08-06T09:05:52.000Z</time>
      </trkpt>
      <trkpt lat="46.04959" lon="4.54031">
        <ele>682</ele>
        <time>2020-08-06T09:05:54.000Z</time>
      </trkpt>
      <trkpt lat="46.04961" lon="4.54028">
        <ele>682.79998779297</ele>
        <time>2020-08-06T09:05:55.000Z</time>
      </trkpt>
      <trkpt lat="46.04962" lon="4.54025">
        <ele>683.59997558594</ele>
        <time>2020-08-06T09:05:56.000Z</time>
      </trkpt>
      <trkpt lat="46.04964" lon="4.54023">
        <ele>684</ele>
        <time>2020-08-06T09:05:57.000Z</time>
      </trkpt>
      <trkpt lat="46.04965" lon="4.54021">
        <ele>684.40002441406</ele>
        <time>2020-08-06T09:05:58.000Z</time>
      </trkpt>
      <trkpt lat="46.04967" lon="4.54019">
        <ele>684.59997558594</ele>
        <time>2020-08-06T09:05:59.000Z</time>
      </trkpt>
      <trkpt lat="46.04969" lon="4.54017">
        <ele>684.59997558594</ele>
        <time>2020-08-06T09:06:00.000Z</time>
      </trkpt>
      <trkpt lat="46.0497" lon="4.54015">
        <ele>684.79998779297</ele>
        <time>2020-08-06T09:06:01.000Z</time>
      </trkpt>
      <trkpt lat="46.04972" lon="4.54013">
        <ele>685.20001220703</ele>
        <time>2020-08-06T09:06:02.000Z</time>
      </trkpt>
      <trkpt lat="46.04973" lon="4.54011">
        <ele>685.40002441406</ele>
        <time>2020-08-06T09:06:03.000Z</time>
      </trkpt>
      <trkpt lat="46.04975" lon="4.54009">
        <ele>685.59997558594</ele>
        <time>2020-08-06T09:06:04.000Z</time>
      </trkpt>
      <trkpt lat="46.04976" lon="4.54007">
        <ele>686</ele>
        <time>2020-08-06T09:06:05.000Z</time>
      </trkpt>
      <trkpt lat="46.04979" lon="4.54004">
        <ele>687.40002441406</ele>
        <time>2020-08-06T09:06:06.000Z</time>
      </trkpt>
      <trkpt lat="46.04981" lon="4.54003">
        <ele>688.40002441406</ele>
        <time>2020-08-06T09:06:07.000Z</time>
      </trkpt>
      <trkpt lat="46.04984" lon="4.54001">
        <ele>689.59997558594</ele>
        <time>2020-08-06T09:06:08.000Z</time>
      </trkpt>
      <trkpt lat="46.04989" lon="4.53999">
        <ele>691.59997558594</ele>
        <time>2020-08-06T09:06:10.000Z</time>
      </trkpt>
      <trkpt lat="46.04997" lon="4.53999">
        <ele>693.79998779297</ele>
        <time>2020-08-06T09:06:12.000Z</time>
      </trkpt>
      <trkpt lat="46.05007" lon="4.54004">
        <ele>695</ele>
        <time>2020-08-06T09:06:15.000Z</time>
      </trkpt>
      <trkpt lat="46.05017" lon="4.54012">
        <ele>695.20001220703</ele>
        <time>2020-08-06T09:06:18.000Z</time>
      </trkpt>
      <trkpt lat="46.05022" lon="4.54015">
        <ele>695.59997558594</ele>
        <time>2020-08-06T09:06:19.000Z</time>
      </trkpt>
      <trkpt lat="46.05025" lon="4.54019">
        <ele>695.40002441406</ele>
        <time>2020-08-06T09:06:20.000Z</time>
      </trkpt>
      <trkpt lat="46.05028" lon="4.54022">
        <ele>695.20001220703</ele>
        <time>2020-08-06T09:06:21.000Z</time>
      </trkpt>
      <trkpt lat="46.05032" lon="4.54031">
        <ele>694</ele>
        <time>2020-08-06T09:06:23.000Z</time>
      </trkpt>
      <trkpt lat="46.05034" lon="4.54035">
        <ele>693.20001220703</ele>
        <time>2020-08-06T09:06:24.000Z</time>
      </trkpt>
      <trkpt lat="46.05036" lon="4.54039">
        <ele>692.40002441406</ele>
        <time>2020-08-06T09:06:25.000Z</time>
      </trkpt>
      <trkpt lat="46.05039" lon="4.54048">
        <ele>690.40002441406</ele>
        <time>2020-08-06T09:06:27.000Z</time>
      </trkpt>
      <trkpt lat="46.0504" lon="4.54053">
        <ele>689.40002441406</ele>
        <time>2020-08-06T09:06:28.000Z</time>
      </trkpt>
      <trkpt lat="46.05041" lon="4.54057">
        <ele>688.40002441406</ele>
        <time>2020-08-06T09:06:29.000Z</time>
      </trkpt>
      <trkpt lat="46.05043" lon="4.54062">
        <ele>687.40002441406</ele>
        <time>2020-08-06T09:06:30.000Z</time>
      </trkpt>
      <trkpt lat="46.05044" lon="4.54066">
        <ele>686.40002441406</ele>
        <time>2020-08-06T09:06:31.000Z</time>
      </trkpt>
      <trkpt lat="46.05045" lon="4.5407">
        <ele>685.40002441406</ele>
        <time>2020-08-06T09:06:32.000Z</time>
      </trkpt>
      <trkpt lat="46.05048" lon="4.54079">
        <ele>683.79998779297</ele>
        <time>2020-08-06T09:06:34.000Z</time>
      </trkpt>
      <trkpt lat="46.05052" lon="4.54087">
        <ele>682</ele>
        <time>2020-08-06T09:06:36.000Z</time>
      </trkpt>
      <trkpt lat="46.05055" lon="4.54095">
        <ele>680.59997558594</ele>
        <time>2020-08-06T09:06:38.000Z</time>
      </trkpt>
      <trkpt lat="46.05057" lon="4.54098">
        <ele>680</ele>
        <time>2020-08-06T09:06:39.000Z</time>
      </trkpt>
      <trkpt lat="46.05059" lon="4.54102">
        <ele>679.59997558594</ele>
        <time>2020-08-06T09:06:40.000Z</time>
      </trkpt>
      <trkpt lat="46.05062" lon="4.54108">
        <ele>678.20001220703</ele>
        <time>2020-08-06T09:06:42.000Z</time>
      </trkpt>
      <trkpt lat="46.0507" lon="4.54115">
        <ele>676.79998779297</ele>
        <time>2020-08-06T09:06:45.000Z</time>
      </trkpt>
      <trkpt lat="46.05072" lon="4.54118">
        <ele>676</ele>
        <time>2020-08-06T09:06:46.000Z</time>
      </trkpt>
      <trkpt lat="46.05087" lon="4.54129">
        <ele>673.40002441406</ele>
        <time>2020-08-06T09:06:52.000Z</time>
      </trkpt>
      <trkpt lat="46.05096" lon="4.54132">
        <ele>672.79998779297</ele>
        <time>2020-08-06T09:06:56.000Z</time>
      </trkpt>
      <trkpt lat="46.05099" lon="4.54132">
        <ele>673.20001220703</ele>
        <time>2020-08-06T09:06:57.000Z</time>
      </trkpt>
      <trkpt lat="46.05102" lon="4.54132">
        <ele>673.79998779297</ele>
        <time>2020-08-06T09:06:58.000Z</time>
      </trkpt>
      <trkpt lat="46.05108" lon="4.5413">
        <ele>675.20001220703</ele>
        <time>2020-08-06T09:07:00.000Z</time>
      </trkpt>
      <trkpt lat="46.05115" lon="4.54126">
        <ele>677.40002441406</ele>
        <time>2020-08-06T09:07:02.000Z</time>
      </trkpt>
      <trkpt lat="46.05133" lon="4.54114">
        <ele>683.79998779297</ele>
        <time>2020-08-06T09:07:08.000Z</time>
      </trkpt>
      <trkpt lat="46.05138" lon="4.54111">
        <ele>685.40002441406</ele>
        <time>2020-08-06T09:07:10.000Z</time>
      </trkpt>
      <trkpt lat="46.05159" lon="4.54094">
        <ele>690.20001220703</ele>
        <time>2020-08-06T09:07:18.000Z</time>
      </trkpt>
      <trkpt lat="46.05176" lon="4.54082">
        <ele>693.20001220703</ele>
        <time>2020-08-06T09:07:24.000Z</time>
      </trkpt>
      <trkpt lat="46.05185" lon="4.54075">
        <ele>694.79998779297</ele>
        <time>2020-08-06T09:07:27.000Z</time>
      </trkpt>
      <trkpt lat="46.05194" lon="4.54066">
        <ele>697</ele>
        <time>2020-08-06T09:07:31.000Z</time>
      </trkpt>
      <trkpt lat="46.05196" lon="4.54064">
        <ele>697.40002441406</ele>
        <time>2020-08-06T09:07:32.000Z</time>
      </trkpt>
      <trkpt lat="46.05211" lon="4.54054">
        <ele>699.59997558594</ele>
        <time>2020-08-06T09:07:37.000Z</time>
      </trkpt>
      <trkpt lat="46.05218" lon="4.54052">
        <ele>699.79998779297</ele>
        <time>2020-08-06T09:07:39.000Z</time>
      </trkpt>
      <trkpt lat="46.05231" lon="4.54053">
        <ele>700.59997558594</ele>
        <time>2020-08-06T09:07:42.000Z</time>
      </trkpt>
      <trkpt lat="46.05236" lon="4.54055">
        <ele>701.59997558594</ele>
        <time>2020-08-06T09:07:43.000Z</time>
      </trkpt>
      <trkpt lat="46.05241" lon="4.54058">
        <ele>702.40002441406</ele>
        <time>2020-08-06T09:07:44.000Z</time>
      </trkpt>
      <trkpt lat="46.05245" lon="4.54062">
        <ele>702.59997558594</ele>
        <time>2020-08-06T09:07:45.000Z</time>
      </trkpt>
      <trkpt lat="46.05248" lon="4.54066">
        <ele>702.59997558594</ele>
        <time>2020-08-06T09:07:46.000Z</time>
      </trkpt>
      <trkpt lat="46.05252" lon="4.54071">
        <ele>702.40002441406</ele>
        <time>2020-08-06T09:07:47.000Z</time>
      </trkpt>
      <trkpt lat="46.05255" lon="4.54075">
        <ele>702</ele>
        <time>2020-08-06T09:07:48.000Z</time>
      </trkpt>
      <trkpt lat="46.05257" lon="4.54079">
        <ele>701.40002441406</ele>
        <time>2020-08-06T09:07:49.000Z</time>
      </trkpt>
      <trkpt lat="46.0526" lon="4.54084">
        <ele>700.79998779297</ele>
        <time>2020-08-06T09:07:50.000Z</time>
      </trkpt>
      <trkpt lat="46.05262" lon="4.54088">
        <ele>700.40002441406</ele>
        <time>2020-08-06T09:07:51.000Z</time>
      </trkpt>
      <trkpt lat="46.05264" lon="4.54092">
        <ele>699.79998779297</ele>
        <time>2020-08-06T09:07:52.000Z</time>
      </trkpt>
      <trkpt lat="46.05266" lon="4.54096">
        <ele>699.20001220703</ele>
        <time>2020-08-06T09:07:53.000Z</time>
      </trkpt>
      <trkpt lat="46.05271" lon="4.54105">
        <ele>698</ele>
        <time>2020-08-06T09:07:55.000Z</time>
      </trkpt>
      <trkpt lat="46.05275" lon="4.54114">
        <ele>696.59997558594</ele>
        <time>2020-08-06T09:07:57.000Z</time>
      </trkpt>
      <trkpt lat="46.05278" lon="4.54122">
        <ele>695.79998779297</ele>
        <time>2020-08-06T09:07:59.000Z</time>
      </trkpt>
      <trkpt lat="46.05282" lon="4.54131">
        <ele>695.40002441406</ele>
        <time>2020-08-06T09:08:01.000Z</time>
      </trkpt>
      <trkpt lat="46.05284" lon="4.54135">
        <ele>695.20001220703</ele>
        <time>2020-08-06T09:08:02.000Z</time>
      </trkpt>
      <trkpt lat="46.05285" lon="4.54139">
        <ele>695.20001220703</ele>
        <time>2020-08-06T09:08:03.000Z</time>
      </trkpt>
      <trkpt lat="46.05289" lon="4.54147">
        <ele>695</ele>
        <time>2020-08-06T09:08:05.000Z</time>
      </trkpt>
      <trkpt lat="46.05293" lon="4.54155">
        <ele>695</ele>
        <time>2020-08-06T09:08:07.000Z</time>
      </trkpt>
      <trkpt lat="46.05297" lon="4.54163">
        <ele>694.59997558594</ele>
        <time>2020-08-06T09:08:09.000Z</time>
      </trkpt>
      <trkpt lat="46.05299" lon="4.54167">
        <ele>694.59997558594</ele>
        <time>2020-08-06T09:08:10.000Z</time>
      </trkpt>
      <trkpt lat="46.05301" lon="4.54171">
        <ele>694.59997558594</ele>
        <time>2020-08-06T09:08:11.000Z</time>
      </trkpt>
      <trkpt lat="46.05305" lon="4.54179">
        <ele>694.40002441406</ele>
        <time>2020-08-06T09:08:13.000Z</time>
      </trkpt>
      <trkpt lat="46.05308" lon="4.54186">
        <ele>694.20001220703</ele>
        <time>2020-08-06T09:08:15.000Z</time>
      </trkpt>
      <trkpt lat="46.05314" lon="4.54197">
        <ele>694.20001220703</ele>
        <time>2020-08-06T09:08:18.000Z</time>
      </trkpt>
      <trkpt lat="46.05318" lon="4.54205">
        <ele>694</ele>
        <time>2020-08-06T09:08:20.000Z</time>
      </trkpt>
      <trkpt lat="46.0532" lon="4.54208">
        <ele>694</ele>
        <time>2020-08-06T09:08:21.000Z</time>
      </trkpt>
      <trkpt lat="46.05326" lon="4.54218">
        <ele>694</ele>
        <time>2020-08-06T09:08:24.000Z</time>
      </trkpt>
      <trkpt lat="46.05332" lon="4.54227">
        <ele>694.20001220703</ele>
        <time>2020-08-06T09:08:27.000Z</time>
      </trkpt>
      <trkpt lat="46.05334" lon="4.5423">
        <ele>694.20001220703</ele>
        <time>2020-08-06T09:08:28.000Z</time>
      </trkpt>
      <trkpt lat="46.0535" lon="4.54242">
        <ele>696.79998779297</ele>
        <time>2020-08-06T09:08:34.000Z</time>
      </trkpt>
      <trkpt lat="46.05353" lon="4.54244">
        <ele>697.40002441406</ele>
        <time>2020-08-06T09:08:35.000Z</time>
      </trkpt>
      <trkpt lat="46.05373" lon="4.54256">
        <ele>701.59997558594</ele>
        <time>2020-08-06T09:08:42.000Z</time>
      </trkpt>
      <trkpt lat="46.05387" lon="4.54264">
        <ele>704.40002441406</ele>
        <time>2020-08-06T09:08:47.000Z</time>
      </trkpt>
      <trkpt lat="46.0539" lon="4.54265">
        <ele>705</ele>
        <time>2020-08-06T09:08:48.000Z</time>
      </trkpt>
      <trkpt lat="46.05408" lon="4.54276">
        <ele>704.59997558594</ele>
        <time>2020-08-06T09:08:55.000Z</time>
      </trkpt>
      <trkpt lat="46.05425" lon="4.54287">
        <ele>703.20001220703</ele>
        <time>2020-08-06T09:09:02.000Z</time>
      </trkpt>
      <trkpt lat="46.05444" lon="4.54302">
        <ele>701</ele>
        <time>2020-08-06T09:09:09.000Z</time>
      </trkpt>
      <trkpt lat="46.05449" lon="4.54306">
        <ele>700.40002441406</ele>
        <time>2020-08-06T09:09:11.000Z</time>
      </trkpt>
      <trkpt lat="46.0546" lon="4.54315">
        <ele>699</ele>
        <time>2020-08-06T09:09:15.000Z</time>
      </trkpt>
      <trkpt lat="46.05465" lon="4.54319">
        <ele>698.40002441406</ele>
        <time>2020-08-06T09:09:17.000Z</time>
      </trkpt>
      <trkpt lat="46.0547" lon="4.54324">
        <ele>697.59997558594</ele>
        <time>2020-08-06T09:09:19.000Z</time>
      </trkpt>
      <trkpt lat="46.05473" lon="4.54325">
        <ele>697.40002441406</ele>
        <time>2020-08-06T09:09:20.000Z</time>
      </trkpt>
      <trkpt lat="46.05476" lon="4.54327">
        <ele>697.20001220703</ele>
        <time>2020-08-06T09:09:21.000Z</time>
      </trkpt>
      <trkpt lat="46.05478" lon="4.54329">
        <ele>696.20001220703</ele>
        <time>2020-08-06T09:09:22.000Z</time>
      </trkpt>
      <trkpt lat="46.05484" lon="4.54331">
        <ele>694.20001220703</ele>
        <time>2020-08-06T09:09:24.000Z</time>
      </trkpt>
      <trkpt lat="46.05488" lon="4.54331">
        <ele>693.20001220703</ele>
        <time>2020-08-06T09:09:25.000Z</time>
      </trkpt>
      <trkpt lat="46.05491" lon="4.54332">
        <ele>692.40002441406</ele>
        <time>2020-08-06T09:09:26.000Z</time>
      </trkpt>
      <trkpt lat="46.05497" lon="4.5433">
        <ele>691.20001220703</ele>
        <time>2020-08-06T09:09:28.000Z</time>
      </trkpt>
      <trkpt lat="46.05502" lon="4.54328">
        <ele>690.40002441406</ele>
        <time>2020-08-06T09:09:30.000Z</time>
      </trkpt>
      <trkpt lat="46.05505" lon="4.54326">
        <ele>690.20001220703</ele>
        <time>2020-08-06T09:09:31.000Z</time>
      </trkpt>
      <trkpt lat="46.05507" lon="4.54324">
        <ele>689.79998779297</ele>
        <time>2020-08-06T09:09:32.000Z</time>
      </trkpt>
      <trkpt lat="46.05513" lon="4.54319">
        <ele>689.59997558594</ele>
        <time>2020-08-06T09:09:34.000Z</time>
      </trkpt>
      <trkpt lat="46.05517" lon="4.54313">
        <ele>689.20001220703</ele>
        <time>2020-08-06T09:09:36.000Z</time>
      </trkpt>
      <trkpt lat="46.05521" lon="4.54306">
        <ele>689</ele>
        <time>2020-08-06T09:09:38.000Z</time>
      </trkpt>
      <trkpt lat="46.05524" lon="4.54298">
        <ele>689.20001220703</ele>
        <time>2020-08-06T09:09:40.000Z</time>
      </trkpt>
      <trkpt lat="46.05527" lon="4.5429">
        <ele>689.40002441406</ele>
        <time>2020-08-06T09:09:42.000Z</time>
      </trkpt>
      <trkpt lat="46.0553" lon="4.54282">
        <ele>689.79998779297</ele>
        <time>2020-08-06T09:09:44.000Z</time>
      </trkpt>
      <trkpt lat="46.05532" lon="4.54275">
        <ele>690.59997558594</ele>
        <time>2020-08-06T09:09:46.000Z</time>
      </trkpt>
      <trkpt lat="46.05534" lon="4.54268">
        <ele>691.40002441406</ele>
        <time>2020-08-06T09:09:48.000Z</time>
      </trkpt>
      <trkpt lat="46.05535" lon="4.54264">
        <ele>691.79998779297</ele>
        <time>2020-08-06T09:09:49.000Z</time>
      </trkpt>
      <trkpt lat="46.05539" lon="4.54248">
        <ele>693.40002441406</ele>
        <time>2020-08-06T09:09:53.000Z</time>
      </trkpt>
      <trkpt lat="46.05541" lon="4.54241">
        <ele>694</ele>
        <time>2020-08-06T09:09:55.000Z</time>
      </trkpt>
      <trkpt lat="46.05543" lon="4.54233">
        <ele>694.40002441406</ele>
        <time>2020-08-06T09:09:57.000Z</time>
      </trkpt>
      <trkpt lat="46.05548" lon="4.54213">
        <ele>696.20001220703</ele>
        <time>2020-08-06T09:10:02.000Z</time>
      </trkpt>
      <trkpt lat="46.05549" lon="4.54209">
        <ele>696.40002441406</ele>
        <time>2020-08-06T09:10:03.000Z</time>
      </trkpt>
      <trkpt lat="46.05553" lon="4.54193">
        <ele>697.79998779297</ele>
        <time>2020-08-06T09:10:07.000Z</time>
      </trkpt>
      <trkpt lat="46.05555" lon="4.54185">
        <ele>698.20001220703</ele>
        <time>2020-08-06T09:10:09.000Z</time>
      </trkpt>
      <trkpt lat="46.05557" lon="4.54177">
        <ele>698.79998779297</ele>
        <time>2020-08-06T09:10:11.000Z</time>
      </trkpt>
      <trkpt lat="46.0556" lon="4.54162">
        <ele>699.59997558594</ele>
        <time>2020-08-06T09:10:15.000Z</time>
      </trkpt>
      <trkpt lat="46.05561" lon="4.54155">
        <ele>700.20001220703</ele>
        <time>2020-08-06T09:10:17.000Z</time>
      </trkpt>
      <trkpt lat="46.05564" lon="4.54144">
        <ele>700.40002441406</ele>
        <time>2020-08-06T09:10:20.000Z</time>
      </trkpt>
      <trkpt lat="46.05569" lon="4.54128">
        <ele>700.79998779297</ele>
        <time>2020-08-06T09:10:24.000Z</time>
      </trkpt>
      <trkpt lat="46.05571" lon="4.54118">
        <ele>702.20001220703</ele>
        <time>2020-08-06T09:10:26.000Z</time>
      </trkpt>
      <trkpt lat="46.05573" lon="4.54109">
        <ele>702.79998779297</ele>
        <time>2020-08-06T09:10:28.000Z</time>
      </trkpt>
      <trkpt lat="46.05576" lon="4.54092">
        <ele>704</ele>
        <time>2020-08-06T09:10:32.000Z</time>
      </trkpt>
      <trkpt lat="46.05577" lon="4.54088">
        <ele>704.20001220703</ele>
        <time>2020-08-06T09:10:33.000Z</time>
      </trkpt>
      <trkpt lat="46.05581" lon="4.54071">
        <ele>705.20001220703</ele>
        <time>2020-08-06T09:10:37.000Z</time>
      </trkpt>
      <trkpt lat="46.05584" lon="4.54051">
        <ele>708</ele>
        <time>2020-08-06T09:10:42.000Z</time>
      </trkpt>
      <trkpt lat="46.05585" lon="4.54048">
        <ele>709</ele>
        <time>2020-08-06T09:10:43.000Z</time>
      </trkpt>
      <trkpt lat="46.05587" lon="4.54027">
        <ele>713.59997558594</ele>
        <time>2020-08-06T09:10:48.000Z</time>
      </trkpt>
      <trkpt lat="46.05588" lon="4.5402">
        <ele>714.20001220703</ele>
        <time>2020-08-06T09:10:50.000Z</time>
      </trkpt>
      <trkpt lat="46.05591" lon="4.53998">
        <ele>716.20001220703</ele>
        <time>2020-08-06T09:10:56.000Z</time>
      </trkpt>
      <trkpt lat="46.05595" lon="4.53968">
        <ele>721</ele>
        <time>2020-08-06T09:11:03.000Z</time>
      </trkpt>
      <trkpt lat="46.05602" lon="4.53941">
        <ele>727.40002441406</ele>
        <time>2020-08-06T09:11:10.000Z</time>
      </trkpt>
      <trkpt lat="46.05613" lon="4.53916">
        <ele>733.59997558594</ele>
        <time>2020-08-06T09:11:17.000Z</time>
      </trkpt>
      <trkpt lat="46.05627" lon="4.539">
        <ele>737.40002441406</ele>
        <time>2020-08-06T09:11:23.000Z</time>
      </trkpt>
      <trkpt lat="46.0564" lon="4.53892">
        <ele>738.59997558594</ele>
        <time>2020-08-06T09:11:28.000Z</time>
      </trkpt>
      <trkpt lat="46.05657" lon="4.53887">
        <ele>739.20001220703</ele>
        <time>2020-08-06T09:11:34.000Z</time>
      </trkpt>
      <trkpt lat="46.05672" lon="4.53886">
        <ele>738.79998779297</ele>
        <time>2020-08-06T09:11:40.000Z</time>
      </trkpt>
      <trkpt lat="46.05685" lon="4.53886">
        <ele>737.59997558594</ele>
        <time>2020-08-06T09:11:45.000Z</time>
      </trkpt>
      <trkpt lat="46.05705" lon="4.53886">
        <ele>736.20001220703</ele>
        <time>2020-08-06T09:11:52.000Z</time>
      </trkpt>
      <trkpt lat="46.05717" lon="4.53885">
        <ele>735.59997558594</ele>
        <time>2020-08-06T09:11:56.000Z</time>
      </trkpt>
      <trkpt lat="46.05722" lon="4.53884">
        <ele>735.59997558594</ele>
        <time>2020-08-06T09:11:58.000Z</time>
      </trkpt>
      <trkpt lat="46.05737" lon="4.53879">
        <ele>735.79998779297</ele>
        <time>2020-08-06T09:12:03.000Z</time>
      </trkpt>
      <trkpt lat="46.0574" lon="4.53878">
        <ele>736</ele>
        <time>2020-08-06T09:12:04.000Z</time>
      </trkpt>
      <trkpt lat="46.0576" lon="4.53868">
        <ele>737.59997558594</ele>
        <time>2020-08-06T09:12:12.000Z</time>
      </trkpt>
      <trkpt lat="46.05775" lon="4.53863">
        <ele>737.59997558594</ele>
        <time>2020-08-06T09:12:18.000Z</time>
      </trkpt>
      <trkpt lat="46.05778" lon="4.53862">
        <ele>737.59997558594</ele>
        <time>2020-08-06T09:12:19.000Z</time>
      </trkpt>
      <trkpt lat="46.05786" lon="4.53859">
        <ele>737.59997558594</ele>
        <time>2020-08-06T09:12:22.000Z</time>
      </trkpt>
      <trkpt lat="46.05792" lon="4.53856">
        <ele>737.59997558594</ele>
        <time>2020-08-06T09:12:24.000Z</time>
      </trkpt>
      <trkpt lat="46.05797" lon="4.53853">
        <ele>737.59997558594</ele>
        <time>2020-08-06T09:12:26.000Z</time>
      </trkpt>
      <trkpt lat="46.05802" lon="4.53851">
        <ele>737.20001220703</ele>
        <time>2020-08-06T09:12:28.000Z</time>
      </trkpt>
      <trkpt lat="46.05808" lon="4.53849">
        <ele>736.59997558594</ele>
        <time>2020-08-06T09:12:31.000Z</time>
      </trkpt>
      <trkpt lat="46.05811" lon="4.53848">
        <ele>736.40002441406</ele>
        <time>2020-08-06T09:12:32.000Z</time>
      </trkpt>
      <trkpt lat="46.05816" lon="4.53844">
        <ele>736.79998779297</ele>
        <time>2020-08-06T09:12:34.000Z</time>
      </trkpt>
      <trkpt lat="46.05821" lon="4.53841">
        <ele>737</ele>
        <time>2020-08-06T09:12:36.000Z</time>
      </trkpt>
      <trkpt lat="46.05823" lon="4.5384">
        <ele>737.20001220703</ele>
        <time>2020-08-06T09:12:37.000Z</time>
      </trkpt>
      <trkpt lat="46.05833" lon="4.53834">
        <ele>737.59997558594</ele>
        <time>2020-08-06T09:12:41.000Z</time>
      </trkpt>
      <trkpt lat="46.05838" lon="4.5383">
        <ele>738</ele>
        <time>2020-08-06T09:12:43.000Z</time>
      </trkpt>
      <trkpt lat="46.0584" lon="4.53828">
        <ele>738.20001220703</ele>
        <time>2020-08-06T09:12:44.000Z</time>
      </trkpt>
      <trkpt lat="46.05847" lon="4.53824">
        <ele>738.59997558594</ele>
        <time>2020-08-06T09:12:47.000Z</time>
      </trkpt>
      <trkpt lat="46.05855" lon="4.5382">
        <ele>738.59997558594</ele>
        <time>2020-08-06T09:12:50.000Z</time>
      </trkpt>
      <trkpt lat="46.05859" lon="4.53817">
        <ele>738.40002441406</ele>
        <time>2020-08-06T09:12:52.000Z</time>
      </trkpt>
      <trkpt lat="46.05866" lon="4.53814">
        <ele>738.20001220703</ele>
        <time>2020-08-06T09:12:55.000Z</time>
      </trkpt>
      <trkpt lat="46.0587" lon="4.53812">
        <ele>738.20001220703</ele>
        <time>2020-08-06T09:12:57.000Z</time>
      </trkpt>
      <trkpt lat="46.05872" lon="4.53811">
        <ele>738</ele>
        <time>2020-08-06T09:12:58.000Z</time>
      </trkpt>
      <trkpt lat="46.05877" lon="4.53807">
        <ele>738</ele>
        <time>2020-08-06T09:13:01.000Z</time>
      </trkpt>
      <trkpt lat="46.05881" lon="4.53804">
        <ele>738</ele>
        <time>2020-08-06T09:13:03.000Z</time>
      </trkpt>
      <trkpt lat="46.05886" lon="4.53801">
        <ele>737.79998779297</ele>
        <time>2020-08-06T09:13:05.000Z</time>
      </trkpt>
      <trkpt lat="46.05891" lon="4.53798">
        <ele>737.79998779297</ele>
        <time>2020-08-06T09:13:07.000Z</time>
      </trkpt>
      <trkpt lat="46.05896" lon="4.53793">
        <ele>738</ele>
        <time>2020-08-06T09:13:09.000Z</time>
      </trkpt>
      <trkpt lat="46.05898" lon="4.53791">
        <ele>738.20001220703</ele>
        <time>2020-08-06T09:13:10.000Z</time>
      </trkpt>
      <trkpt lat="46.05904" lon="4.53783">
        <ele>738.40002441406</ele>
        <time>2020-08-06T09:13:13.000Z</time>
      </trkpt>
      <trkpt lat="46.05907" lon="4.53778">
        <ele>738.20001220703</ele>
        <time>2020-08-06T09:13:15.000Z</time>
      </trkpt>
      <trkpt lat="46.05908" lon="4.53775">
        <ele>738</ele>
        <time>2020-08-06T09:13:16.000Z</time>
      </trkpt>
      <trkpt lat="46.0591" lon="4.53769">
        <ele>737.79998779297</ele>
        <time>2020-08-06T09:13:18.000Z</time>
      </trkpt>
    </trkseg>
  </trk>
</gpx>